createdAt,value
2019-01-06T00:01:20.882Z,89.20
2019-01-06T00:03:53.648Z,89.10
2019-01-06T00:06:32.474Z,88.80
2019-01-06T00:09:20.877Z,88.60
2019-01-06T00:12:08.786Z,88.50
2019-01-06T00:14:55.254Z,88.30
2019-01-06T00:17:25.357Z,88.20
2019-01-06T00:19:58.357Z,87.90
2019-01-06T00:22:31.384Z,87.80
2019-01-06T00:25:07.429Z,88.10
2019-01-06T00:27:37.517Z,88.10
2019-01-06T00:30:23.978Z,88.00
2019-01-06T00:32:57.014Z,88.20
2019-01-06T00:35:45.270Z,88.40
2019-01-06T00:38:31.861Z,88.40
2019-01-06T00:41:11.058Z,88.40
2019-01-06T00:43:41.118Z,88.70
2019-01-06T00:46:13.661Z,89.00
2019-01-06T00:48:46.362Z,89.30
2019-01-06T00:51:34.299Z,89.30
2019-01-06T00:54:13.354Z,89.30
2019-01-06T00:56:49.374Z,89.30
2019-01-06T00:59:25.093Z,89.30
2019-01-06T01:01:55.239Z,89.30
2019-01-06T01:04:28.036Z,89.10
2019-01-06T01:07:04.055Z,89.00
2019-01-06T01:09:43.571Z,88.70
2019-01-06T01:12:30.040Z,88.80
2019-01-06T01:15:12.517Z,88.70
2019-01-06T01:17:59.247Z,88.70
2019-01-06T01:20:35.565Z,88.80
2019-01-06T01:23:08.566Z,89.00
2019-01-06T01:25:48.371Z,89.30
2019-01-06T01:28:21.535Z,89.10
2019-01-06T01:31:11.080Z,89.10
2019-01-06T01:33:50.411Z,89.20
2019-01-06T01:36:36.749Z,89.10
2019-01-06T01:39:26.178Z,89.00
2019-01-06T01:41:59.095Z,89.00
2019-01-06T01:44:29.234Z,89.00
2019-01-06T01:47:17.450Z,88.90
2019-01-06T01:49:53.015Z,88.80
2019-01-06T01:52:23.138Z,88.80
2019-01-06T01:55:11.356Z,88.90
2019-01-06T01:57:56.847Z,89.10
2019-01-06T02:00:43.472Z,89.20
2019-01-06T02:03:16.238Z,89.00
2019-01-06T02:05:46.330Z,89.10
2019-01-06T02:08:22.203Z,89.20
2019-01-06T02:11:08.821Z,89.20
2019-01-06T02:13:41.908Z,89.20
2019-01-06T02:16:24.060Z,89.00
2019-01-06T02:19:00.096Z,88.90
2019-01-06T02:21:45.421Z,88.80
2019-01-06T02:24:18.314Z,88.70
2019-01-06T02:26:51.103Z,88.80
2019-01-06T02:29:23.874Z,88.80
2019-01-06T02:32:06.091Z,88.80
2019-01-06T02:34:41.920Z,89.00
2019-01-06T02:37:27.022Z,89.00
2019-01-06T02:40:03.193Z,88.90
2019-01-06T02:42:39.451Z,88.90
2019-01-06T02:45:09.514Z,88.80
2019-01-06T02:47:55.824Z,88.80
2019-01-06T02:50:28.625Z,89.00
2019-01-06T02:52:58.717Z,89.00
2019-01-06T02:55:38.007Z,88.90
2019-01-06T02:58:20.129Z,88.80
2019-01-06T03:00:52.867Z,88.80
2019-01-06T03:03:25.960Z,88.90
2019-01-06T03:06:05.455Z,88.90
2019-01-06T03:08:41.535Z,89.10
2019-01-06T03:11:23.511Z,89.00
2019-01-06T03:14:09.518Z,89.00
2019-01-06T03:16:39.579Z,89.10
2019-01-06T03:19:18.847Z,89.20
2019-01-06T03:22:00.962Z,89.20
2019-01-06T03:24:49.051Z,89.10
2019-01-06T03:27:19.113Z,89.10
2019-01-06T03:29:49.215Z,89.10
2019-01-06T03:32:24.995Z,89.00
2019-01-06T03:35:00.663Z,88.90
2019-01-06T03:37:30.727Z,89.00
2019-01-06T03:40:16.739Z,89.00
2019-01-06T03:42:55.826Z,88.80
2019-01-06T03:45:29.199Z,88.80
2019-01-06T03:48:15.485Z,88.70
2019-01-06T03:51:00.231Z,88.50
2019-01-06T03:53:45.291Z,88.50
2019-01-06T03:56:18.360Z,88.50
2019-01-06T03:58:48.409Z,88.40
2019-01-06T04:01:24.475Z,88.30
2019-01-06T04:03:54.540Z,88.20
2019-01-06T04:06:40.946Z,88.10
2019-01-06T04:09:11.039Z,88.10
2019-01-06T04:11:43.852Z,88.10
2019-01-06T04:14:16.684Z,88.20
2019-01-06T04:17:03.217Z,88.10
2019-01-06T04:19:49.718Z,88.00
2019-01-06T04:22:38.293Z,87.90
2019-01-06T04:25:13.963Z,88.10
2019-01-06T04:28:01.947Z,88.00
2019-01-06T04:30:32.013Z,88.00
2019-01-06T04:33:07.817Z,88.20
2019-01-06T04:35:52.702Z,88.30
2019-01-06T04:38:25.405Z,88.50
2019-01-06T04:41:01.326Z,88.60
2019-01-06T04:43:37.286Z,88.50
2019-01-06T04:46:07.341Z,88.60
2019-01-06T04:48:43.183Z,88.40
2019-01-06T04:51:31.651Z,88.50
2019-01-06T04:54:18.088Z,88.30
2019-01-06T04:57:04.304Z,88.30
2019-01-06T04:59:34.387Z,88.50
2019-01-06T05:02:04.450Z,88.40
2019-01-06T05:04:37.486Z,88.50
2019-01-06T05:07:10.347Z,88.80
2019-01-06T05:09:56.723Z,88.70
2019-01-06T05:12:32.987Z,88.80
2019-01-06T05:15:12.010Z,89.00
2019-01-06T05:17:48.002Z,88.90
2019-01-06T05:20:20.727Z,88.80
2019-01-06T05:23:06.706Z,88.90
2019-01-06T05:25:48.771Z,89.10
2019-01-06T05:28:21.588Z,89.10
2019-01-06T05:31:00.467Z,89.30
2019-01-06T05:33:30.554Z,89.40
2019-01-06T05:36:15.658Z,89.30
2019-01-06T05:38:54.587Z,89.20
2019-01-06T05:41:40.014Z,89.20
2019-01-06T05:44:12.816Z,89.20
2019-01-06T05:46:42.882Z,89.10
2019-01-06T05:49:28.163Z,89.10
2019-01-06T05:51:58.635Z,89.10
2019-01-06T05:54:37.670Z,89.00
2019-01-06T05:57:24.041Z,89.00
2019-01-06T06:00:10.543Z,89.00
2019-01-06T06:02:52.661Z,89.00
2019-01-06T06:05:25.347Z,88.90
2019-01-06T06:07:55.424Z,88.90
2019-01-06T06:10:34.293Z,89.10
2019-01-06T06:13:07.154Z,89.30
2019-01-06T06:15:39.909Z,89.30
2019-01-06T06:18:26.356Z,89.40
2019-01-06T06:21:11.245Z,89.40
2019-01-06T06:23:50.122Z,89.40
2019-01-06T06:26:20.240Z,89.50
2019-01-06T06:28:50.362Z,89.30
2019-01-06T06:31:30.727Z,89.20
2019-01-06T06:34:03.659Z,89.10
2019-01-06T06:36:36.396Z,89.00
2019-01-06T06:39:20.090Z,89.00
2019-01-06T06:42:01.903Z,89.10
2019-01-06T06:44:46.949Z,88.90
2019-01-06T06:47:35.430Z,88.90
2019-01-06T06:50:21.387Z,89.00
2019-01-06T06:53:07.857Z,89.00
2019-01-06T06:55:40.737Z,88.90
2019-01-06T06:58:15.330Z,89.10
2019-01-06T07:01:06.047Z,89.20
2019-01-06T07:03:59.497Z,89.30
2019-01-06T07:06:41.495Z,89.20
2019-01-06T07:09:17.339Z,89.20
2019-01-06T07:12:05.355Z,89.10
2019-01-06T07:14:35.435Z,89.20
2019-01-06T07:17:58.476Z,89.00
2019-01-06T07:20:48.756Z,89.10
2019-01-06T07:23:34.971Z,89.10
2019-01-06T07:26:19.985Z,89.30
2019-01-06T07:28:58.871Z,89.50
2019-01-06T07:31:31.922Z,89.60
2019-01-06T07:34:07.746Z,89.60
2019-01-06T07:36:54.039Z,89.60
2019-01-06T07:39:24.140Z,89.70
2019-01-06T07:42:00.094Z,89.70
2019-01-06T07:44:32.892Z,89.60
2019-01-06T07:47:02.947Z,89.40
2019-01-06T07:49:41.843Z,89.40
2019-01-06T07:52:20.930Z,89.30
2019-01-06T07:54:51.021Z,89.00
2019-01-06T07:57:37.725Z,88.90
2019-01-06T08:00:20.391Z,88.60
2019-01-06T08:02:50.461Z,88.30
2019-01-06T08:05:45.722Z,88.20
2019-01-06T08:08:32.580Z,88.10
2019-01-06T08:11:05.562Z,87.70
2019-01-06T08:13:52.118Z,87.30
2019-01-06T08:16:31.073Z,86.90
2019-01-06T08:19:17.656Z,86.60
2019-01-06T08:21:53.693Z,86.40
2019-01-06T08:24:26.554Z,86.40
2019-01-06T08:27:08.947Z,86.40
2019-01-06T08:29:55.541Z,86.50
2019-01-06T08:32:41.896Z,86.10
2019-01-06T08:35:27.350Z,85.40
2019-01-06T08:38:00.667Z,85.00
2019-01-06T08:40:36.722Z,84.20
2019-01-06T08:43:06.820Z,83.50
2019-01-06T08:45:53.142Z,83.40
2019-01-06T08:48:29.170Z,83.30
2019-01-06T08:51:14.331Z,83.50
2019-01-06T08:54:00.334Z,83.50
2019-01-06T08:56:46.647Z,83.60
2019-01-06T08:59:31.978Z,83.70
2019-01-06T09:02:17.166Z,83.40
2019-01-06T09:05:03.859Z,82.10
2019-01-06T09:07:36.769Z,82.10
2019-01-06T09:10:17.211Z,81.10
2019-01-06T09:13:02.355Z,81.00
2019-01-06T09:15:40.907Z,81.00
2019-01-06T09:18:27.309Z,80.50
2019-01-06T09:20:57.364Z,80.50
2019-01-06T09:23:42.207Z,80.80
2019-01-06T09:26:13.800Z,81.00
2019-01-06T09:29:00.296Z,81.10
2019-01-06T09:31:30.363Z,80.80
2019-01-06T09:34:16.634Z,81.00
2019-01-06T09:37:03.410Z,81.90
2019-01-06T09:39:48.510Z,81.90
2019-01-06T09:42:24.462Z,81.70
2019-01-06T09:45:03.419Z,81.30
2019-01-06T09:47:36.451Z,80.90
2019-01-06T09:50:22.360Z,80.20
2019-01-06T09:52:58.933Z,79.80
2019-01-06T09:55:35.373Z,79.00
2019-01-06T09:58:21.707Z,78.70
2019-01-06T10:00:54.787Z,78.20
2019-01-06T10:03:27.316Z,78.10
2019-01-06T10:05:57.430Z,78.90
2019-01-06T10:08:45.415Z,78.80
2019-01-06T10:11:15.506Z,78.90
2019-01-06T10:13:51.503Z,79.00
2019-01-06T10:16:36.588Z,78.40
2019-01-06T10:19:21.512Z,78.30
2019-01-06T10:21:51.602Z,76.30
2019-01-06T10:24:21.664Z,76.40
2019-01-06T10:26:57.560Z,74.50
2019-01-06T10:29:33.205Z,74.80
2019-01-06T10:32:15.164Z,76.00
2019-01-06T10:35:01.736Z,75.90
2019-01-06T10:37:31.821Z,75.60
2019-01-06T10:40:18.193Z,75.40
2019-01-06T10:42:48.271Z,74.90
2019-01-06T10:45:30.580Z,73.80
2019-01-06T10:48:00.672Z,72.70
2019-01-06T10:50:36.358Z,73.50
2019-01-06T10:53:22.650Z,74.10
2019-01-06T10:55:52.717Z,74.90
2019-01-06T10:58:34.607Z,75.60
2019-01-06T11:01:13.364Z,76.30
2019-01-06T11:03:59.808Z,76.80
2019-01-06T11:06:38.930Z,77.20
2019-01-06T11:09:09.179Z,77.10
2019-01-06T11:11:45.058Z,76.40
2019-01-06T11:14:31.372Z,76.00
2019-01-06T11:17:01.759Z,75.00
2019-01-06T11:19:48.081Z,74.90
2019-01-06T11:22:27.331Z,75.40
2019-01-06T11:25:12.491Z,75.70
2019-01-06T11:27:42.625Z,75.80
2019-01-06T11:30:29.419Z,76.90
2019-01-06T11:33:17.632Z,77.20
2019-01-06T11:36:03.838Z,77.10
2019-01-06T11:38:43.157Z,77.00
2019-01-06T11:41:25.163Z,77.10
2019-01-06T11:44:14.180Z,77.10
2019-01-06T11:46:44.491Z,77.40
2019-01-06T11:49:30.791Z,77.60
2019-01-06T11:52:03.580Z,77.80
2019-01-06T11:54:45.983Z,77.00
2019-01-06T11:57:24.951Z,76.00
2019-01-06T12:00:10.071Z,75.60
2019-01-06T12:02:45.750Z,76.30
2019-01-06T12:05:30.810Z,77.00
2019-01-06T12:08:05.697Z,76.80
2019-01-06T12:10:35.559Z,75.60
2019-01-06T12:13:08.348Z,76.00
2019-01-06T12:15:38.509Z,76.80
2019-01-06T12:18:25.163Z,77.40
2019-01-06T12:21:07.126Z,77.10
2019-01-06T12:23:42.991Z,77.50
2019-01-06T12:26:25.340Z,77.30
2019-01-06T12:29:11.896Z,77.50
2019-01-06T12:31:58.548Z,78.80
2019-01-06T12:34:47.032Z,79.60
2019-01-06T12:37:20.187Z,79.40
2019-01-06T12:40:07.271Z,79.40
2019-01-06T12:42:39.844Z,79.80
2019-01-06T12:45:10.088Z,78.50
2019-01-06T12:47:56.528Z,78.30
2019-01-06T12:50:38.601Z,79.30
2019-01-06T12:53:25.027Z,78.30
2019-01-06T12:55:55.210Z,78.50
2019-01-06T12:58:25.308Z,79.20
2019-01-06T13:00:55.391Z,78.80
2019-01-06T13:03:42.016Z,78.80
2019-01-06T13:06:14.933Z,79.10
2019-01-06T13:08:47.593Z,79.20
2019-01-06T13:11:17.680Z,79.30
2019-01-06T13:13:52.287Z,78.30
2019-01-06T13:16:22.404Z,78.50
2019-01-06T13:18:52.470Z,77.40
2019-01-06T13:21:38.863Z,77.80
2019-01-06T13:24:11.889Z,77.90
2019-01-06T13:26:58.162Z,77.60
2019-01-06T13:29:31.223Z,77.40
2019-01-06T13:32:13.398Z,77.50
2019-01-06T13:34:59.978Z,77.30
2019-01-06T13:37:30.079Z,78.10
2019-01-06T13:40:00.274Z,78.30
2019-01-06T13:42:47.277Z,79.20
2019-01-06T13:45:26.369Z,79.90
2019-01-06T13:48:11.318Z,80.10
2019-01-06T13:50:41.429Z,80.80
2019-01-06T13:53:28.125Z,80.90
2019-01-06T13:56:13.492Z,80.90
2019-01-06T13:58:52.851Z,81.50
2019-01-06T14:01:39.355Z,82.00
2019-01-06T14:04:21.630Z,82.30
2019-01-06T14:07:08.137Z,82.90
2019-01-06T14:09:56.097Z,82.70
2019-01-06T14:12:32.215Z,83.10
2019-01-06T14:15:05.558Z,82.80
2019-01-06T14:17:41.632Z,82.70
2019-01-06T14:20:28.055Z,82.50
2019-01-06T14:23:07.415Z,82.80
2019-01-06T14:25:37.498Z,83.60
2019-01-06T14:28:23.572Z,84.10
2019-01-06T14:31:09.628Z,84.30
2019-01-06T14:33:45.751Z,84.60
2019-01-06T14:36:32.329Z,84.80
2019-01-06T14:39:11.641Z,85.10
2019-01-06T14:41:41.719Z,85.10
2019-01-06T14:44:17.316Z,84.60
2019-01-06T14:46:50.363Z,84.50
2019-01-06T14:49:20.441Z,84.70
2019-01-06T14:51:53.211Z,85.00
2019-01-06T14:54:35.190Z,85.40
2019-01-06T14:57:21.981Z,85.80
2019-01-06T15:00:07.375Z,85.90
2019-01-06T15:02:40.425Z,86.40
2019-01-06T15:05:19.777Z,86.60
2019-01-06T15:07:52.598Z,86.90
2019-01-06T15:10:25.577Z,87.10
2019-01-06T15:12:55.675Z,87.50
2019-01-06T15:15:28.710Z,87.80
2019-01-06T15:18:15.126Z,88.00
2019-01-06T15:21:01.427Z,88.10
2019-01-06T15:23:31.794Z,88.40
2019-01-06T15:26:18.419Z,88.70
2019-01-06T15:28:51.160Z,88.90
2019-01-06T15:31:33.264Z,89.10
2019-01-06T15:34:18.671Z,89.10
2019-01-06T15:37:06.899Z,89.20
2019-01-06T15:39:53.239Z,89.30
2019-01-06T15:42:23.296Z,89.60
2019-01-06T15:44:53.394Z,89.70
2019-01-06T15:47:35.310Z,89.80
2019-01-06T15:50:05.954Z,89.80
2019-01-06T15:52:45.116Z,89.90
2019-01-06T15:55:15.311Z,89.80
2019-01-06T15:58:00.564Z,89.90
2019-01-06T16:00:50.698Z,90.00
2019-01-06T16:03:23.783Z,90.00
2019-01-06T16:06:02.277Z,90.10
2019-01-06T16:08:32.379Z,90.10
2019-01-06T16:11:02.498Z,90.20
2019-01-06T16:13:41.660Z,90.10
2019-01-06T16:16:15.845Z,90.10
2019-01-06T16:18:45.932Z,90.20
2019-01-06T16:21:16.012Z,90.20
2019-01-06T16:23:46.070Z,90.20
2019-01-06T16:26:32.514Z,90.20
2019-01-06T16:29:11.756Z,90.20
2019-01-06T16:31:47.615Z,90.20
2019-01-06T16:34:29.825Z,90.10
2019-01-06T16:37:17.818Z,90.20
2019-01-06T16:40:06.175Z,90.20
2019-01-06T16:42:36.246Z,90.10
2019-01-06T16:45:13.263Z,90.10
2019-01-06T16:47:55.546Z,90.10
2019-01-06T16:50:43.790Z,90.10
2019-01-06T16:53:32.186Z,90.00
2019-01-06T16:56:02.285Z,90.00
2019-01-06T16:58:47.735Z,90.00
2019-01-06T17:01:36.186Z,90.00
2019-01-06T17:04:22.519Z,90.00
2019-01-06T17:07:04.644Z,90.00
2019-01-06T17:09:40.247Z,90.00
2019-01-06T17:12:12.937Z,90.00
2019-01-06T17:14:52.064Z,90.00
2019-01-06T17:17:22.242Z,90.00
2019-01-06T17:19:58.149Z,90.10
2019-01-06T17:22:44.537Z,90.00
2019-01-06T17:25:31.114Z,90.00
2019-01-06T17:28:01.208Z,89.90
2019-01-06T17:30:37.350Z,89.90
2019-01-06T17:33:07.435Z,89.90
2019-01-06T17:35:53.944Z,89.80
2019-01-06T17:38:26.958Z,89.80
2019-01-06T17:40:57.043Z,89.90
2019-01-06T17:43:33.091Z,89.80
2019-01-06T17:46:09.172Z,89.80
2019-01-06T17:48:51.488Z,89.90
2019-01-06T17:51:24.091Z,89.90
2019-01-06T17:54:12.411Z,89.80
2019-01-06T17:56:48.375Z,89.90
2019-01-06T17:59:20.964Z,90.00
2019-01-06T18:01:53.655Z,90.00
2019-01-06T18:04:26.261Z,90.00
2019-01-06T18:07:05.535Z,90.00
2019-01-06T18:11:28.668Z,89.90
2019-01-06T18:14:01.372Z,90.00
2019-01-06T18:16:47.864Z,89.90
2019-01-06T18:19:17.942Z,89.90
2019-01-06T18:22:04.460Z,89.70
2019-01-06T18:24:50.855Z,89.60
2019-01-06T18:27:26.692Z,89.50
2019-01-06T18:30:09.068Z,89.40
2019-01-06T18:32:41.850Z,89.30
2019-01-06T18:35:11.906Z,89.20
2019-01-06T18:37:54.834Z,89.30
2019-01-06T18:40:37.563Z,89.30
2019-01-06T18:43:10.311Z,89.40
2019-01-06T18:45:46.195Z,89.40
2019-01-06T18:48:25.610Z,89.40
2019-01-06T18:51:01.964Z,89.50
2019-01-06T18:53:41.108Z,89.60
2019-01-06T18:56:20.183Z,89.90
2019-01-06T18:58:50.255Z,90.00
2019-01-06T19:01:24.465Z,90.10
2019-01-06T19:03:54.535Z,90.20
2019-01-06T19:06:28.252Z,90.30
2019-01-06T19:09:13.580Z,90.30
2019-01-06T19:12:00.265Z,90.30
2019-01-06T19:14:30.342Z,90.30
2019-01-06T19:17:16.770Z,90.30
2019-01-06T19:20:03.267Z,90.30
2019-01-06T19:22:45.757Z,90.30
2019-01-06T19:25:33.691Z,90.30
2019-01-06T19:28:16.102Z,90.30
2019-01-06T19:31:02.369Z,90.30
2019-01-06T19:33:32.517Z,90.30
2019-01-06T19:36:05.290Z,90.20
2019-01-06T19:38:51.746Z,90.20
2019-01-06T19:41:30.817Z,90.20
2019-01-06T19:44:13.323Z,90.20
2019-01-06T19:46:59.715Z,90.10
2019-01-06T19:49:42.581Z,90.20
2019-01-06T19:52:13.138Z,90.20
2019-01-06T19:54:46.596Z,90.20
2019-01-06T19:57:22.633Z,90.30
2019-01-06T20:00:07.863Z,90.30
2019-01-06T20:02:46.699Z,90.30
2019-01-06T20:05:25.455Z,90.30
2019-01-06T20:07:57.981Z,90.30
2019-01-06T20:10:33.823Z,90.30
2019-01-06T20:13:03.882Z,90.30
2019-01-06T20:15:37.212Z,90.30
2019-01-06T20:18:23.859Z,90.30
2019-01-06T20:21:10.274Z,90.30
2019-01-06T20:23:58.406Z,90.30
2019-01-06T20:26:28.490Z,90.40
2019-01-06T20:29:01.378Z,90.40
2019-01-06T20:31:34.183Z,90.40
2019-01-06T20:34:09.983Z,90.50
2019-01-06T20:36:56.430Z,90.50
2019-01-06T20:39:44.655Z,90.50
2019-01-06T20:42:30.726Z,90.50
2019-01-06T20:45:06.611Z,90.50
2019-01-06T20:47:45.582Z,90.50
2019-01-06T20:50:18.070Z,90.60
2019-01-06T20:53:04.438Z,90.50
2019-01-06T20:55:40.284Z,90.60
2019-01-06T20:58:16.385Z,90.60
2019-01-06T21:01:01.493Z,90.60
2019-01-06T21:03:48.071Z,90.60
2019-01-06T21:06:34.374Z,90.60
2019-01-06T21:09:07.520Z,90.60
2019-01-06T21:11:54.809Z,90.60
2019-01-06T21:14:41.251Z,90.50
2019-01-06T21:17:26.437Z,90.50
2019-01-06T21:19:56.536Z,90.50
2019-01-06T21:22:44.756Z,90.50
2019-01-06T21:25:14.938Z,90.50
2019-01-06T21:27:50.766Z,90.40
2019-01-06T21:30:29.906Z,90.40
2019-01-06T21:33:16.045Z,90.50
2019-01-06T21:35:49.046Z,90.50
2019-01-06T21:38:35.591Z,90.50
2019-01-06T21:41:11.611Z,90.50
2019-01-06T21:43:41.734Z,90.50
2019-01-06T21:46:23.799Z,90.50
2019-01-06T21:48:56.608Z,90.50
2019-01-06T21:51:32.717Z,90.50
2019-01-06T21:54:05.783Z,90.50
2019-01-06T21:56:45.245Z,90.50
2019-01-06T21:59:18.050Z,90.50
2019-01-06T22:02:06.166Z,90.50
2019-01-06T22:04:48.236Z,90.50
2019-01-06T22:07:18.504Z,90.50
2019-01-06T22:09:51.526Z,90.50
2019-01-06T22:12:37.835Z,90.60
2019-01-06T22:15:24.119Z,90.60
2019-01-06T22:18:03.427Z,90.60
2019-01-06T22:20:39.518Z,90.60
2019-01-06T22:23:15.246Z,90.60
2019-01-06T22:25:54.352Z,90.60
2019-01-06T22:28:39.394Z,90.60
2019-01-06T22:31:25.734Z,90.60
2019-01-06T22:33:55.797Z,90.70
2019-01-06T22:36:28.491Z,90.60
2019-01-06T22:39:04.080Z,90.60
2019-01-06T22:41:50.198Z,90.70
2019-01-06T22:44:20.282Z,90.70
2019-01-06T22:47:05.171Z,90.70
2019-01-06T22:49:37.635Z,90.70
2019-01-06T22:52:10.710Z,90.70
2019-01-06T22:54:43.763Z,90.70
2019-01-06T22:57:30.426Z,90.70
2019-01-06T23:00:15.626Z,90.70
2019-01-06T23:02:48.550Z,90.70
2019-01-06T23:05:34.855Z,90.70
2019-01-06T23:08:21.131Z,90.70
2019-01-06T23:10:51.179Z,90.60
2019-01-06T23:13:37.512Z,90.70
2019-01-06T23:16:19.833Z,90.60
2019-01-06T23:18:52.655Z,90.60
2019-01-06T23:21:38.811Z,90.60
2019-01-06T23:24:08.903Z,90.60
2019-01-06T23:26:39.043Z,90.60
2019-01-06T23:29:25.416Z,90.60
2019-01-06T23:31:58.259Z,90.60
2019-01-06T23:34:44.623Z,90.60
2019-01-06T23:37:17.736Z,90.60
2019-01-06T23:39:47.819Z,90.60
2019-01-06T23:42:20.674Z,90.60
2019-01-06T23:44:56.231Z,90.60
2019-01-06T23:47:42.655Z,90.60
2019-01-06T23:50:19.039Z,90.60
2019-01-06T23:53:04.320Z,90.60
2019-01-06T23:55:34.404Z,90.60
2019-01-06T23:58:07.196Z,90.60
